createdAt,value
2018-05-11T00:00:15.524Z,1012.94
2018-05-11T00:01:15.570Z,1012.93
2018-05-11T00:02:15.591Z,1012.91
2018-05-11T00:03:15.625Z,1012.91
2018-05-11T00:04:15.652Z,1012.93
2018-05-11T00:05:15.690Z,1012.89
2018-05-11T00:06:15.717Z,1012.92
2018-05-11T00:07:15.893Z,1012.92
2018-05-11T00:08:15.931Z,1012.9
2018-05-11T00:09:15.958Z,1012.93
2018-05-11T00:10:15.994Z,1013.02
2018-05-11T00:11:16.021Z,1012.96
2018-05-11T00:12:16.054Z,1013.01
2018-05-11T00:13:16.091Z,1013.01
2018-05-11T00:14:16.131Z,1013.01
2018-05-11T00:15:16.253Z,1013.01
2018-05-11T00:16:16.560Z,1013.05
2018-05-11T00:17:16.560Z,1013.02
2018-05-11T00:18:16.858Z,1013.14
2018-05-11T00:19:16.879Z,1013.03
2018-05-11T00:20:16.926Z,1013.04
2018-05-11T00:21:17.224Z,1013.12
2018-05-11T00:22:17.265Z,1013.1
2018-05-11T00:23:17.659Z,1013.07
2018-05-11T00:24:18.051Z,1013.11
2018-05-11T00:25:18.063Z,1013.15
2018-05-11T00:26:18.091Z,1013.15
2018-05-11T00:27:18.124Z,1013.18
2018-05-11T00:28:18.168Z,1013.16
2018-05-11T00:29:18.399Z,1013.18
2018-05-11T00:30:18.670Z,1013.26
2018-05-11T00:31:18.714Z,1013.22
2018-05-11T00:32:18.740Z,1013.24
2018-05-11T00:33:18.961Z,1013.28
2018-05-11T00:34:19.000Z,1013.29
2018-05-11T00:35:32.672Z,1013.24
2018-05-11T00:36:32.710Z,1013.22
2018-05-11T00:37:33.115Z,1013.27
2018-05-11T00:38:33.146Z,1013.25
2018-05-11T00:39:33.554Z,1013.3
2018-05-11T00:40:33.588Z,1013.34
2018-05-11T00:41:33.626Z,1013.29
2018-05-11T00:42:34.037Z,1013.29
2018-05-11T00:43:34.254Z,1013.3
2018-05-11T00:44:34.281Z,1013.3
2018-05-11T00:45:34.314Z,1013.39
2018-05-11T00:46:34.724Z,1013.35
2018-05-11T00:47:34.730Z,1013.38
2018-05-11T00:48:34.853Z,1013.4
2018-05-11T00:49:35.253Z,1013.43
2018-05-11T00:50:35.381Z,1013.52
2018-05-11T00:51:35.417Z,1013.45
2018-05-11T00:52:35.443Z,1013.54
2018-05-11T00:53:35.472Z,1013.52
2018-05-11T00:54:35.505Z,1013.54
2018-05-11T00:55:35.680Z,1013.57
2018-05-11T00:56:36.088Z,1013.59
2018-05-11T00:57:36.116Z,1013.61
2018-05-11T00:58:36.145Z,1013.6
2018-05-11T00:59:36.316Z,1013.63
2018-05-11T01:00:36.361Z,1013.61
2018-05-11T01:01:36.558Z,1013.62
2018-05-11T01:02:36.727Z,1013.66
2018-05-11T01:03:36.920Z,1013.67
2018-05-11T01:04:36.911Z,1013.72
2018-05-11T01:05:36.942Z,1013.78
2018-05-11T01:06:37.367Z,1013.73
2018-05-11T01:07:37.476Z,1013.72
2018-05-11T01:08:37.906Z,1013.79
2018-05-11T01:09:37.919Z,1013.79
2018-05-11T01:10:38.102Z,1013.81
2018-05-11T01:11:38.194Z,1013.81
2018-05-11T01:12:38.262Z,1013.85
2018-05-11T01:13:38.292Z,1013.82
2018-05-11T01:14:38.419Z,1013.87
2018-05-11T01:15:38.487Z,1013.84
2018-05-11T01:16:38.704Z,1013.9
2018-05-11T01:17:39.099Z,1013.9
2018-05-11T01:18:39.132Z,1013.95
2018-05-11T01:19:39.165Z,1013.93
2018-05-11T01:20:39.316Z,1013.98
2018-05-11T01:21:39.363Z,1014.02
2018-05-11T01:22:39.371Z,1014.04
2018-05-11T01:23:39.412Z,1014.03
2018-05-11T01:24:39.446Z,1014.08
2018-05-11T01:25:39.870Z,1014.07
2018-05-11T01:26:39.902Z,1014.1
2018-05-11T01:27:40.085Z,1014.13
2018-05-11T01:28:40.109Z,1014.1
2018-05-11T01:29:40.534Z,1014.13
2018-05-11T01:30:40.542Z,1014.12
2018-05-11T01:31:40.741Z,1014.1
2018-05-11T01:32:41.145Z,1014.11
2018-05-11T01:33:41.176Z,1014.14
2018-05-11T01:34:41.364Z,1014.15
2018-05-11T01:35:41.390Z,1014.19
2018-05-11T01:36:41.572Z,1014.2
2018-05-11T01:37:41.886Z,1014.22
2018-05-11T01:38:41.906Z,1014.21
2018-05-11T01:39:41.981Z,1014.24
2018-05-11T01:40:42.011Z,1014.17
2018-05-11T01:41:42.173Z,1014.18
2018-05-11T01:42:42.557Z,1014.23
2018-05-11T01:43:42.710Z,1014.22
2018-05-11T01:44:42.771Z,1014.19
2018-05-11T01:45:42.938Z,1014.22
2018-05-11T01:46:42.971Z,1014.25
2018-05-11T01:47:43.048Z,1014.27
2018-05-11T01:48:43.287Z,1014.28
2018-05-11T01:49:43.303Z,1014.28
2018-05-11T01:50:43.444Z,1014.3
2018-05-11T01:51:43.477Z,1014.35
2018-05-11T01:52:43.872Z,1014.39
2018-05-11T01:53:44.004Z,1014.43
2018-05-11T01:54:44.125Z,1014.44
2018-05-11T01:55:44.539Z,1014.43
2018-05-11T01:56:44.572Z,1014.44
2018-05-11T01:57:44.959Z,1014.48
2018-05-11T01:58:45.006Z,1014.49
2018-05-11T01:59:45.037Z,1014.56
2018-05-11T02:00:45.058Z,1014.54
2018-05-11T02:01:45.177Z,1014.52
2018-05-11T02:02:45.584Z,1014.53
2018-05-11T02:03:45.617Z,1014.49
2018-05-11T02:04:45.987Z,1014.56
2018-05-11T02:05:46.127Z,1014.55
2018-05-11T02:06:46.277Z,1014.53
2018-05-11T02:07:46.305Z,1014.52
2018-05-11T02:08:46.337Z,1014.58
2018-05-11T02:09:46.459Z,1014.58
2018-05-11T02:10:46.561Z,1014.63
2018-05-11T02:11:46.593Z,1014.62
2018-05-11T02:12:47.006Z,1014.62
2018-05-11T02:13:47.177Z,1014.63
2018-05-11T02:14:47.214Z,1014.59
2018-05-11T02:15:47.596Z,1014.7
2018-05-11T02:16:47.623Z,1014.72
2018-05-11T02:17:47.654Z,1014.66
2018-05-11T02:18:47.798Z,1014.69
2018-05-11T02:19:48.088Z,1014.73
2018-05-11T02:20:48.491Z,1014.76
2018-05-11T02:21:48.885Z,1014.74
2018-05-11T02:22:49.289Z,1014.79
2018-05-11T02:23:49.312Z,1014.79
2018-05-11T02:24:49.338Z,1014.83
2018-05-11T02:25:49.634Z,1014.83
2018-05-11T02:26:49.584Z,1014.87
2018-05-11T02:27:49.618Z,1014.85
2018-05-11T02:28:49.649Z,1014.9
2018-05-11T02:29:49.688Z,1014.9
2018-05-11T02:30:49.803Z,1014.9
2018-05-11T02:31:49.965Z,1014.88
2018-05-11T02:32:50.382Z,1014.88
2018-05-11T02:33:50.488Z,1014.9
2018-05-11T02:34:50.520Z,1014.94
2018-05-11T02:35:50.932Z,1014.9
2018-05-11T02:36:51.077Z,1014.92
2018-05-11T02:37:51.339Z,1014.9
2018-05-11T02:38:51.503Z,1014.92
2018-05-11T02:39:51.535Z,1014.92
2018-05-11T02:40:51.561Z,1014.94
2018-05-11T02:41:51.691Z,1014.91
2018-05-11T02:42:51.708Z,1014.92
2018-05-11T02:43:51.737Z,1014.9
2018-05-11T02:44:52.389Z,1014.93
2018-05-11T02:45:52.833Z,1014.99
2018-05-11T02:46:53.002Z,1015
2018-05-11T02:47:53.019Z,1014.96
2018-05-11T02:48:53.059Z,1014.98
2018-05-11T02:49:53.092Z,1014.98
2018-05-11T02:50:53.112Z,1015.06
2018-05-11T02:51:53.247Z,1015.03
2018-05-11T02:52:53.269Z,1015.02
2018-05-11T02:53:53.307Z,1015.06
2018-05-11T02:54:53.340Z,1015.06
2018-05-11T02:55:53.554Z,1015.07
2018-05-11T02:56:53.600Z,1015.04
2018-05-11T02:57:53.623Z,1015.05
2018-05-11T02:58:53.660Z,1015.09
2018-05-11T02:59:53.687Z,1015.11
2018-05-11T03:00:53.736Z,1015.08
2018-05-11T03:01:53.976Z,1015.06
2018-05-11T03:02:54.027Z,1015.03
2018-05-11T03:03:54.066Z,1015.08
2018-05-11T03:04:54.259Z,1015.06
2018-05-11T03:05:54.740Z,1015.05
2018-05-11T03:06:54.914Z,1015.05
2018-05-11T03:07:55.319Z,1015.11
2018-05-11T03:08:55.733Z,1015.02
2018-05-11T03:09:55.997Z,1015.1
2018-05-11T03:10:56.306Z,1015.1
2018-05-11T03:11:56.697Z,1015.12
2018-05-11T03:12:56.859Z,1015.12
2018-05-11T03:13:56.867Z,1015.17
2018-05-11T03:14:56.919Z,1015.16
2018-05-11T03:15:57.004Z,1015.2
2018-05-11T03:16:57.152Z,1015.18
2018-05-11T03:17:57.477Z,1015.24
2018-05-11T03:18:57.502Z,1015.25
2018-05-11T03:19:57.888Z,1015.27
2018-05-11T03:20:57.964Z,1015.3
2018-05-11T03:21:58.395Z,1015.28
2018-05-11T03:22:58.444Z,1015.29
2018-05-11T03:23:58.894Z,1015.3
2018-05-11T03:24:59.066Z,1015.28
2018-05-11T03:25:59.099Z,1015.27
2018-05-11T03:26:59.143Z,1015.33
2018-05-11T03:27:59.350Z,1015.28
2018-05-11T03:28:59.361Z,1015.23
2018-05-11T03:29:59.414Z,1015.28
2018-05-11T03:30:59.448Z,1015.29
2018-05-11T03:31:59.455Z,1015.31
2018-05-11T03:32:59.632Z,1015.31
2018-05-11T03:33:59.753Z,1015.39
2018-05-11T03:34:59.830Z,1015.35
2018-05-11T03:35:59.865Z,1015.37
2018-05-11T03:36:59.900Z,1015.38
2018-05-11T03:37:59.925Z,1015.36
2018-05-11T03:38:59.959Z,1015.38
2018-05-11T03:39:59.969Z,1015.36
2018-05-11T03:41:00.022Z,1015.39
2018-05-11T03:42:00.057Z,1015.45
2018-05-11T03:43:00.227Z,1015.41
2018-05-11T03:44:00.794Z,1015.38
2018-05-11T03:45:00.870Z,1015.41
2018-05-11T03:46:00.823Z,1015.43
2018-05-11T03:47:01.019Z,1015.39
2018-05-11T03:48:01.062Z,1015.4
2018-05-11T03:49:01.516Z,1015.43
2018-05-11T03:50:01.513Z,1015.42
2018-05-11T03:51:01.702Z,1015.42
2018-05-11T03:52:01.665Z,1015.48
2018-05-11T03:53:01.703Z,1015.48
2018-05-11T03:54:01.927Z,1015.46
2018-05-11T03:55:02.109Z,1015.5
2018-05-11T03:56:02.245Z,1015.46
2018-05-11T03:57:02.216Z,1015.53
2018-05-11T03:58:02.651Z,1015.5
2018-05-11T03:59:02.682Z,1015.48
2018-05-11T04:00:15.440Z,1015.54
2018-05-11T04:01:02.737Z,1015.58
2018-05-11T04:02:03.141Z,1015.59
2018-05-11T04:03:03.171Z,1015.58
2018-05-11T04:04:03.201Z,1015.62
2018-05-11T04:05:03.345Z,1015.61
2018-05-11T04:06:03.386Z,1015.61
2018-05-11T04:07:03.539Z,1015.66
2018-05-11T04:08:04.003Z,1015.66
2018-05-11T04:09:04.004Z,1015.65
2018-05-11T04:10:04.040Z,1015.68
2018-05-11T04:11:04.069Z,1015.72
2018-05-11T04:12:04.487Z,1015.71
2018-05-11T04:13:04.546Z,1015.76
2018-05-11T04:14:04.853Z,1015.8
2018-05-11T04:15:05.443Z,1015.81
2018-05-11T04:16:05.602Z,1015.84
2018-05-11T04:17:05.746Z,1015.92
2018-05-11T04:18:05.905Z,1015.9
2018-05-11T04:19:06.205Z,1015.86
2018-05-11T04:20:06.241Z,1015.87
2018-05-11T04:21:06.284Z,1015.91
2018-05-11T04:22:06.737Z,1015.83
2018-05-11T04:23:06.763Z,1015.85
2018-05-11T04:24:06.796Z,1015.88
2018-05-11T04:25:06.942Z,1015.87
2018-05-11T04:26:06.974Z,1015.84
2018-05-11T04:27:07.389Z,1015.86
2018-05-11T04:28:07.444Z,1015.9
2018-05-11T04:29:07.465Z,1015.95
2018-05-11T04:30:07.496Z,1015.98
2018-05-11T04:31:07.525Z,1015.95
2018-05-11T04:32:07.930Z,1015.98
2018-05-11T04:33:08.508Z,1015.96
2018-05-11T04:34:08.393Z,1015.97
2018-05-11T04:35:08.894Z,1015.92
2018-05-11T04:36:09.128Z,1015.93
2018-05-11T04:37:09.297Z,1015.95
2018-05-11T04:38:09.332Z,1015.93
2018-05-11T04:39:09.361Z,1015.89
2018-05-11T04:40:09.498Z,1015.88
2018-05-11T04:41:09.531Z,1015.85
2018-05-11T04:42:09.964Z,1015.86
2018-05-11T04:43:10.450Z,1015.9
2018-05-11T04:44:10.479Z,1015.85
2018-05-11T04:45:10.543Z,1015.9
2018-05-11T04:46:10.527Z,1015.87
2018-05-11T04:47:10.556Z,1015.93
2018-05-11T04:48:10.594Z,1015.92
2018-05-11T04:49:10.618Z,1015.94
2018-05-11T04:50:10.649Z,1015.94
2018-05-11T04:51:11.086Z,1015.94
2018-05-11T04:52:11.299Z,1015.93
2018-05-11T04:53:11.438Z,1015.98
2018-05-11T04:54:11.825Z,1015.96
2018-05-11T04:55:11.854Z,1015.98
2018-05-11T04:56:12.304Z,1016
2018-05-11T04:57:12.681Z,1016
2018-05-11T04:58:12.903Z,1016
2018-05-11T04:59:12.934Z,1015.97
2018-05-11T05:00:13.337Z,1016
2018-05-11T05:01:13.352Z,1016.01
2018-05-11T05:02:13.452Z,1015.97
2018-05-11T05:03:13.466Z,1016.02
2018-05-11T05:04:13.607Z,1016
2018-05-11T05:05:13.641Z,1015.96
2018-05-11T05:06:14.037Z,1015.99
2018-05-11T05:07:14.460Z,1015.98
2018-05-11T05:08:14.488Z,1015.96
2018-05-11T05:09:14.592Z,1016.01
2018-05-11T05:10:14.536Z,1016
2018-05-11T05:11:14.567Z,1015.99
2018-05-11T05:12:14.639Z,1016.04
2018-05-11T05:13:14.657Z,1016.02
2018-05-11T05:14:14.836Z,1016
2018-05-11T05:15:14.892Z,1016.08
2018-05-11T05:16:14.874Z,1016.07
2018-05-11T05:17:15.498Z,1016.11
2018-05-11T05:18:15.447Z,1016.12
2018-05-11T05:19:15.574Z,1016.11
2018-05-11T05:20:15.516Z,1016.14
2018-05-11T05:21:15.554Z,1016.18
2018-05-11T05:22:16.051Z,1016.18
2018-05-11T05:23:16.526Z,1016.18
2018-05-11T05:24:16.854Z,1016.25
2018-05-11T05:25:16.976Z,1016.31
2018-05-11T05:26:16.890Z,1016.33
2018-05-11T05:27:16.926Z,1016.31
2018-05-11T05:28:17.142Z,1016.31
2018-05-11T05:29:17.327Z,1016.34
2018-05-11T05:30:17.744Z,1016.37
2018-05-11T05:31:17.958Z,1016.34
2018-05-11T05:32:17.878Z,1016.37
2018-05-11T05:33:18.275Z,1016.39
2018-05-11T05:34:18.286Z,1016.38
2018-05-11T05:35:18.737Z,1016.42
2018-05-11T05:36:18.767Z,1016.45
2018-05-11T05:37:19.199Z,1016.47
2018-05-11T05:38:19.230Z,1016.42
2018-05-11T05:39:19.640Z,1016.49
2018-05-11T05:40:20.032Z,1016.49
2018-05-11T05:41:20.161Z,1016.46
2018-05-11T05:42:20.245Z,1016.49
2018-05-11T05:43:20.614Z,1016.44
2018-05-11T05:44:20.682Z,1016.5
2018-05-11T05:45:20.798Z,1016.55
2018-05-11T05:46:20.828Z,1016.53
2018-05-11T05:47:20.942Z,1016.58
2018-05-11T05:48:21.335Z,1016.55
2018-05-11T05:49:21.717Z,1016.58
2018-05-11T05:50:21.757Z,1016.65
2018-05-11T05:51:22.189Z,1016.51
2018-05-11T05:52:22.215Z,1016.57
2018-05-11T05:53:22.313Z,1016.58
2018-05-11T05:54:22.414Z,1016.58
2018-05-11T05:55:22.700Z,1016.59
2018-05-11T05:56:22.845Z,1016.62
2018-05-11T05:57:23.017Z,1016.59
2018-05-11T05:58:23.087Z,1016.59
2018-05-11T05:59:23.075Z,1016.63
2018-05-11T07:00:13.895Z,1016.83
2018-05-11T07:01:13.926Z,1016.87
2018-05-11T07:02:13.964Z,1016.83
2018-05-11T07:03:13.986Z,1016.84
2018-05-11T07:04:14.402Z,1016.85
2018-05-11T07:05:14.659Z,1016.88
2018-05-11T07:06:14.787Z,1016.85
2018-05-11T07:07:14.845Z,1016.88
2018-05-11T07:08:15.140Z,1016.88
2018-05-11T07:09:15.569Z,1016.92
2018-05-11T07:10:15.703Z,1016.84
2018-05-11T07:11:15.741Z,1016.86
2018-05-11T07:12:16.009Z,1016.86
2018-05-11T07:13:15.799Z,1016.86
2018-05-11T07:14:16.304Z,1016.92
2018-05-11T07:15:16.364Z,1016.91
2018-05-11T07:16:16.765Z,1016.95
2018-05-11T07:17:17.167Z,1016.94
2018-05-11T07:18:17.197Z,1016.96
2018-05-11T07:19:17.306Z,1016.98
2018-05-11T07:20:17.350Z,1016.93
2018-05-11T07:21:17.386Z,1016.98
2018-05-11T07:22:17.438Z,1017.01
2018-05-11T07:23:17.664Z,1016.94
2018-05-11T07:24:17.695Z,1016.99
2018-05-11T07:25:18.083Z,1017
2018-05-11T07:26:18.098Z,1016.99
2018-05-11T07:27:18.484Z,1017.01
2018-05-11T07:28:18.511Z,1017
2018-05-11T07:29:18.544Z,1017.01
2018-05-11T07:30:19.017Z,1017.02
2018-05-11T07:31:19.050Z,1017.06
2018-05-11T07:32:19.078Z,1017.06
2018-05-11T07:33:19.112Z,1017.04
2018-05-11T07:34:19.139Z,1017.09
2018-05-11T07:35:19.561Z,1017.08
2018-05-11T07:36:19.717Z,1017.07
2018-05-11T07:37:20.139Z,1017.08
2018-05-11T07:38:20.167Z,1017.12
2018-05-11T07:39:20.533Z,1017.08
2018-05-11T07:40:20.957Z,1017.12
2018-05-11T07:41:20.984Z,1017.08
2018-05-11T07:42:21.137Z,1017.09
2018-05-11T07:43:21.229Z,1017.08
2018-05-11T07:44:21.198Z,1017.08
2018-05-11T07:45:21.228Z,1017.15
2018-05-11T07:46:21.271Z,1017.16
2018-05-11T07:47:21.438Z,1017.16
2018-05-11T07:48:21.469Z,1017.13
2018-05-11T07:49:21.845Z,1017.15
2018-05-11T07:50:22.117Z,1017.17
2018-05-11T07:51:21.906Z,1017.14
2018-05-11T07:52:21.950Z,1017.19
2018-05-11T07:53:21.970Z,1017.19
2018-05-11T07:54:22.349Z,1017.24
2018-05-11T07:55:22.380Z,1017.18
2018-05-11T07:56:22.407Z,1017.22
2018-05-11T07:57:22.461Z,1017.2
2018-05-11T07:58:22.513Z,1017.19
2018-05-11T07:59:22.506Z,1017.19
2018-05-11T08:00:22.541Z,1017.22
2018-05-11T08:01:22.771Z,1017.23
2018-05-11T08:02:23.062Z,1017.23
2018-05-11T08:03:23.094Z,1017.21
2018-05-11T08:04:23.230Z,1017.2
2018-05-11T08:05:23.152Z,1017.2
2018-05-11T08:06:23.186Z,1017.24
2018-05-11T08:07:23.233Z,1017.22
2018-05-11T08:08:23.252Z,1017.19
2018-05-11T08:09:23.443Z,1017.2
2018-05-11T08:10:24.032Z,1017.24
2018-05-11T08:11:24.395Z,1017.21
2018-05-11T08:12:24.413Z,1017.17
2018-05-11T08:13:24.965Z,1017.18
2018-05-11T08:14:25.038Z,1017.14
2018-05-11T08:15:25.217Z,1017.18
2018-05-11T08:16:25.249Z,1017.16
2018-05-11T08:17:25.294Z,1017.14
2018-05-11T08:18:25.309Z,1017.15
2018-05-11T08:19:25.574Z,1017.16
2018-05-11T08:20:25.790Z,1017.13
2018-05-11T08:21:25.868Z,1017.11
2018-05-11T08:22:25.852Z,1017.09
2018-05-11T08:23:25.889Z,1017.08
2018-05-11T08:24:26.103Z,1017.07
2018-05-11T08:25:26.313Z,1017.03
2018-05-11T08:26:26.530Z,1017.08
2018-05-11T08:27:26.566Z,1017.07
2018-05-11T08:28:27.038Z,1017.08
2018-05-11T08:29:27.064Z,1017.1
2018-05-11T08:30:27.185Z,1017.07
2018-05-11T08:31:27.131Z,1017.09
2018-05-11T08:32:27.245Z,1017.12
2018-05-11T08:33:27.230Z,1017.12
2018-05-11T08:34:27.233Z,1017.15
2018-05-11T08:35:27.263Z,1017.21
2018-05-11T08:36:27.297Z,1017.18
2018-05-11T08:37:27.332Z,1017.14
2018-05-11T08:38:27.647Z,1017.18
2018-05-11T08:39:27.681Z,1017.17
2018-05-11T08:40:27.953Z,1017.23
2018-05-11T08:41:27.984Z,1017.22
2018-05-11T08:42:28.012Z,1017.23
2018-05-11T08:43:28.046Z,1017.17
2018-05-11T08:44:28.088Z,1017.22
2018-05-11T08:45:28.130Z,1017.28
2018-05-11T08:46:28.193Z,1017.24
2018-05-11T08:47:28.460Z,1017.24
2018-05-11T08:48:28.494Z,1017.28
2018-05-11T08:49:28.526Z,1017.27
2018-05-11T08:50:28.578Z,1017.24
2018-05-11T08:51:28.601Z,1017.24
2018-05-11T08:52:28.815Z,1017.28
2018-05-11T08:53:29.101Z,1017.3
2018-05-11T08:54:29.108Z,1017.34
2018-05-11T08:55:29.141Z,1017.33
2018-05-11T08:56:29.176Z,1017.37
2018-05-11T08:57:29.209Z,1017.36
2018-05-11T08:58:29.242Z,1017.38
2018-05-11T08:59:29.275Z,1017.39
2018-05-11T09:00:29.486Z,1017.4
2018-05-11T09:01:29.727Z,1017.43
2018-05-11T09:02:29.727Z,1017.38
2018-05-11T09:03:29.758Z,1017.37
2018-05-11T09:04:29.794Z,1017.38
2018-05-11T09:05:29.824Z,1017.38
2018-05-11T09:06:30.317Z,1017.36
2018-05-11T09:07:30.346Z,1017.37
2018-05-11T09:08:30.989Z,1017.36
2018-05-11T09:09:30.948Z,1017.39
2018-05-11T09:10:30.988Z,1017.41
2018-05-11T09:11:31.055Z,1017.43
2018-05-11T09:12:31.046Z,1017.44
2018-05-11T09:13:31.086Z,1017.45
2018-05-11T09:14:31.117Z,1017.46
2018-05-11T09:15:31.307Z,1017.45
2018-05-11T09:16:31.336Z,1017.45
2018-05-11T09:17:31.818Z,1017.5
2018-05-11T09:18:32.025Z,1017.51
2018-05-11T09:19:32.055Z,1017.52
2018-05-11T09:20:32.094Z,1017.51
2018-05-11T09:21:32.215Z,1017.54
2018-05-11T09:22:32.155Z,1017.48
2018-05-11T09:23:32.378Z,1017.47
2018-05-11T09:24:32.403Z,1017.48
2018-05-11T09:25:32.895Z,1017.44
2018-05-11T09:26:32.923Z,1017.47
2018-05-11T09:27:32.947Z,1017.44
2018-05-11T09:28:32.980Z,1017.43
2018-05-11T09:29:33.015Z,1017.44
2018-05-11T09:30:33.380Z,1017.47
2018-05-11T09:31:33.266Z,1017.46
2018-05-11T09:32:33.314Z,1017.57
2018-05-11T09:33:33.399Z,1017.47
2018-05-11T09:34:33.425Z,1017.55
2018-05-11T09:35:33.451Z,1017.49
2018-05-11T09:36:33.945Z,1017.57
2018-05-11T09:37:34.152Z,1017.61
2018-05-11T09:38:34.183Z,1017.55
2018-05-11T09:39:34.805Z,1017.61
2018-05-11T09:40:34.508Z,1017.54
2018-05-11T09:41:34.551Z,1017.57
2018-05-11T09:42:34.577Z,1017.53
2018-05-11T09:43:34.792Z,1017.55
2018-05-11T09:44:34.830Z,1017.6
2018-05-11T09:45:35.023Z,1017.59
2018-05-11T09:46:35.058Z,1017.58
2018-05-11T09:47:35.104Z,1017.6
2018-05-11T09:48:35.156Z,1017.57
2018-05-11T09:49:35.569Z,1017.61
2018-05-11T09:50:35.832Z,1017.66
2018-05-11T09:51:35.853Z,1017.58
2018-05-11T09:52:36.414Z,1017.6
2018-05-11T09:53:36.393Z,1017.64
2018-05-11T09:54:36.412Z,1017.58
2018-05-11T09:55:36.449Z,1017.61
2018-05-11T09:56:36.483Z,1017.61
2018-05-11T09:57:36.522Z,1017.6
2018-05-11T09:58:36.552Z,1017.64
2018-05-11T09:59:36.586Z,1017.64
2018-05-11T10:00:36.620Z,1017.66
2018-05-11T10:01:36.752Z,1017.63
2018-05-11T10:02:36.722Z,1017.63
2018-05-11T10:03:36.856Z,1017.64
2018-05-11T10:04:36.797Z,1017.64
2018-05-11T10:05:36.813Z,1017.65
2018-05-11T10:06:36.824Z,1017.66
2018-05-11T10:07:36.850Z,1017.69
2018-05-11T10:08:36.904Z,1017.71
2018-05-11T10:09:36.940Z,1017.64
2018-05-11T10:10:37.403Z,1017.67
2018-05-11T10:11:37.725Z,1017.69
2018-05-11T10:12:38.202Z,1017.71
2018-05-11T10:13:38.607Z,1017.72
2018-05-11T10:14:38.634Z,1017.68
2018-05-11T10:15:38.888Z,1017.71
2018-05-11T10:16:38.874Z,1017.73
2018-05-11T10:17:38.930Z,1017.7
2018-05-11T10:18:38.968Z,1017.73
2018-05-11T10:19:38.987Z,1017.71
2018-05-11T10:20:39.359Z,1017.74
2018-05-11T10:21:39.377Z,1017.76
2018-05-11T10:22:39.442Z,1017.75
2018-05-11T10:23:39.899Z,1017.75
2018-05-11T10:24:40.093Z,1017.72
2018-05-11T10:25:40.564Z,1017.73
2018-05-11T10:26:40.588Z,1017.76
2018-05-11T10:27:40.739Z,1017.75
2018-05-11T10:28:41.295Z,1017.76
2018-05-11T10:29:41.273Z,1017.75
2018-05-11T10:30:41.439Z,1017.77
2018-05-11T10:31:41.443Z,1017.77
2018-05-11T10:32:41.649Z,1017.77
2018-05-11T10:33:41.840Z,1017.77
2018-05-11T10:34:42.147Z,1017.77
2018-05-11T10:35:42.220Z,1017.76
2018-05-11T10:36:42.369Z,1017.79
2018-05-11T10:37:42.660Z,1017.75
2018-05-11T10:38:43.074Z,1017.77
2018-05-11T10:39:43.112Z,1017.79
2018-05-11T10:40:43.470Z,1017.82
2018-05-11T10:41:43.787Z,1017.84
2018-05-11T10:42:44.034Z,1017.8
2018-05-11T10:43:44.074Z,1017.82
2018-05-11T10:44:44.413Z,1017.83
2018-05-11T10:45:44.267Z,1017.88
2018-05-11T10:46:44.606Z,1017.86
2018-05-11T10:47:44.448Z,1017.91
2018-05-11T10:48:44.825Z,1017.9
2018-05-11T10:49:44.753Z,1017.91
2018-05-11T10:50:44.916Z,1017.91
2018-05-11T10:51:44.989Z,1017.97
2018-05-11T10:52:44.995Z,1017.96
2018-05-11T10:53:45.145Z,1017.88
2018-05-11T10:54:45.179Z,1017.9
2018-05-11T10:55:45.212Z,1017.89
2018-05-11T10:56:45.656Z,1017.91
2018-05-11T10:57:45.766Z,1017.89
2018-05-11T10:58:46.716Z,1017.87
2018-05-11T10:59:46.462Z,1017.84
2018-05-11T11:00:47.434Z,1017.88
2018-05-11T11:01:47.426Z,1017.89
2018-05-11T11:02:47.225Z,1017.88
2018-05-11T11:03:47.503Z,1017.93
2018-05-11T11:04:47.533Z,1017.89
2018-05-11T11:05:47.566Z,1017.89
2018-05-11T11:06:47.785Z,1017.87
2018-05-11T11:07:47.826Z,1017.86
2018-05-11T11:08:47.854Z,1017.88
2018-05-11T11:09:47.887Z,1017.86
2018-05-11T11:10:48.002Z,1017.89
2018-05-11T11:11:47.963Z,1017.87
2018-05-11T11:12:47.991Z,1017.85
2018-05-11T11:13:48.221Z,1017.83
2018-05-11T11:14:48.416Z,1017.87
2018-05-11T11:15:48.829Z,1017.87
2018-05-11T11:16:48.860Z,1017.84
2018-05-11T11:17:49.383Z,1017.78
2018-05-11T11:18:49.422Z,1017.83
2018-05-11T11:19:49.809Z,1017.83
2018-05-11T11:20:49.764Z,1017.76
2018-05-11T11:21:49.788Z,1017.81
2018-05-11T11:22:49.858Z,1017.81
2018-05-11T11:23:50.188Z,1017.74
2018-05-11T11:24:49.900Z,1017.74
2018-05-11T11:25:49.948Z,1017.76
2018-05-11T11:26:49.978Z,1017.75
2018-05-11T11:27:50.008Z,1017.76
2018-05-11T11:28:50.176Z,1017.79
2018-05-11T11:29:50.427Z,1017.77
2018-05-11T11:30:50.703Z,1017.77
2018-05-11T11:31:50.732Z,1017.78
2018-05-11T11:32:50.779Z,1017.76
2018-05-11T11:33:50.868Z,1017.78
2018-05-11T11:34:50.858Z,1017.77
2018-05-11T11:35:51.137Z,1017.79
2018-05-11T11:36:51.439Z,1017.75
2018-05-11T11:37:51.478Z,1017.76
2018-05-11T11:38:51.948Z,1017.77
2018-05-11T11:39:52.168Z,1017.78
2018-05-11T11:40:52.175Z,1017.78
2018-05-11T11:41:52.242Z,1017.75
2018-05-11T11:42:52.608Z,1017.76
2018-05-11T11:43:52.511Z,1017.78
2018-05-11T11:44:52.582Z,1017.8
2018-05-11T11:45:52.585Z,1017.74
2018-05-11T11:46:52.654Z,1017.75
2018-05-11T11:47:53.064Z,1017.72
2018-05-11T11:48:53.080Z,1017.69
2018-05-11T11:49:53.129Z,1017.7
2018-05-11T11:50:53.179Z,1017.75
2018-05-11T11:51:53.193Z,1017.73
2018-05-11T11:52:53.239Z,1017.75
2018-05-11T11:53:53.271Z,1017.71
2018-05-11T11:54:53.425Z,1017.72
2018-05-11T11:55:53.446Z,1017.75
2018-05-11T11:56:53.486Z,1017.72
2018-05-11T11:57:53.521Z,1017.75
2018-05-11T11:58:53.743Z,1017.74
2018-05-11T11:59:53.943Z,1017.7
2018-05-11T12:00:53.960Z,1017.73
2018-05-11T12:01:54.075Z,1017.74
2018-05-11T12:02:54.043Z,1017.74
2018-05-11T12:03:54.508Z,1017.7
2018-05-11T12:04:54.645Z,1017.7
2018-05-11T12:05:55.013Z,1017.67
2018-05-11T12:06:55.432Z,1017.64
2018-05-11T12:07:55.634Z,1017.66
2018-05-11T12:08:56.251Z,1017.65
2018-05-11T12:09:56.260Z,1017.62
2018-05-11T12:10:56.392Z,1017.64
2018-05-11T12:11:56.553Z,1017.61
2018-05-11T12:12:56.577Z,1017.68
2018-05-11T12:13:56.727Z,1017.64
2018-05-11T12:14:56.989Z,1017.65
2018-05-11T12:15:57.376Z,1017.64
2018-05-11T12:16:57.730Z,1017.63
2018-05-11T12:17:57.882Z,1017.61
2018-05-11T12:18:57.947Z,1017.67
2018-05-11T12:19:57.961Z,1017.66
2018-05-11T12:20:57.992Z,1017.67
2018-05-11T12:21:58.027Z,1017.7
2018-05-11T12:22:58.166Z,1017.66
2018-05-11T12:23:58.309Z,1017.65
2018-05-11T12:24:58.608Z,1017.68
2018-05-11T12:25:58.709Z,1017.67
2018-05-11T12:26:58.751Z,1017.66
2018-05-11T12:27:59.124Z,1017.63
2018-05-11T12:28:59.564Z,1017.66
2018-05-11T12:29:59.594Z,1017.64
2018-05-11T12:31:00.072Z,1017.66
2018-05-11T12:32:00.536Z,1017.61
2018-05-11T12:33:01.050Z,1017.62
2018-05-11T12:34:00.799Z,1017.61
2018-05-11T12:35:01.575Z,1017.62
2018-05-11T12:36:01.549Z,1017.59
2018-05-11T12:37:01.574Z,1017.6
2018-05-11T12:38:01.602Z,1017.63
2018-05-11T12:39:02.003Z,1017.62
2018-05-11T12:40:02.144Z,1017.56
2018-05-11T12:41:02.600Z,1017.57
2018-05-11T12:42:02.533Z,1017.59
2018-05-11T12:43:02.570Z,1017.64
2018-05-11T12:44:02.691Z,1017.64
2018-05-11T12:45:02.832Z,1017.63
2018-05-11T12:46:02.858Z,1017.65
2018-05-11T12:47:02.888Z,1017.65
2018-05-11T12:48:02.933Z,1017.67
2018-05-11T12:49:03.410Z,1017.63
2018-05-11T12:50:03.702Z,1017.62
2018-05-11T12:51:03.482Z,1017.67
2018-05-11T12:52:04.214Z,1017.65
2018-05-11T12:53:04.153Z,1017.59
2018-05-11T12:54:04.190Z,1017.61
2018-05-11T12:55:03.879Z,1017.6
2018-05-11T12:56:04.542Z,1017.58
2018-05-11T12:57:04.551Z,1017.62
2018-05-11T12:58:04.308Z,1017.62
2018-05-11T12:59:04.716Z,1017.61
2018-05-11T13:00:11.522Z,1017.61
2018-05-11T13:01:11.719Z,1017.59
2018-05-11T13:02:12.135Z,1017.58
2018-05-11T13:03:12.549Z,1017.59
2018-05-11T13:04:12.713Z,1017.55
2018-05-11T13:05:12.712Z,1017.59
2018-05-11T13:06:12.758Z,1017.54
2018-05-11T13:07:13.544Z,1017.54
2018-05-11T13:08:13.392Z,1017.58
2018-05-11T13:09:13.794Z,1017.59
2018-05-11T13:10:14.241Z,1017.58